createdAt,value
2018-11-26T00:01:35.796Z,24.60
2018-11-26T00:04:05.864Z,24.87
2018-11-26T00:06:35.888Z,24.53
2018-11-26T00:09:06.947Z,24.57
2018-11-26T00:11:38.407Z,23.47
2018-11-26T00:14:08.892Z,24.53
2018-11-26T00:16:39.437Z,24.87
2018-11-26T00:19:09.959Z,24.13
2018-11-26T00:21:40.188Z,24.27
2018-11-26T00:24:11.315Z,23.80
2018-11-26T00:26:41.540Z,23.60
2018-11-26T00:29:12.380Z,23.27
2018-11-26T00:31:42.915Z,23.13
2018-11-26T00:34:13.439Z,22.83
2018-11-26T00:36:43.967Z,23.10
2018-11-26T00:39:14.304Z,23.40
2018-11-26T00:41:45.020Z,22.90
2018-11-26T00:44:15.883Z,22.80
2018-11-26T00:46:46.702Z,22.87
2018-11-26T00:49:17.532Z,23.17
2018-11-26T00:51:48.680Z,22.00
2018-11-26T00:54:19.021Z,21.23
2018-11-26T00:56:48.888Z,21.93
2018-11-26T00:59:18.704Z,22.03
2018-11-26T01:01:49.255Z,21.23
2018-11-26T01:04:19.475Z,21.20
2018-11-26T01:06:50.324Z,20.83
2018-11-26T01:09:21.153Z,21.87
2018-11-26T01:11:51.676Z,21.57
2018-11-26T01:14:22.033Z,22.45
2018-11-26T01:16:52.431Z,20.33
2018-11-26T01:19:23.578Z,21.07
2018-11-26T01:21:54.107Z,20.27
2018-11-26T01:24:24.939Z,21.30
2018-11-26T01:29:25.360Z,20.57
2018-11-26T01:31:55.612Z,19.93
2018-11-26T01:34:26.139Z,20.63
2018-11-26T01:36:56.669Z,20.67
2018-11-26T01:39:26.579Z,20.07
2018-11-26T01:41:57.114Z,19.87
2018-11-26T01:44:28.257Z,19.87
2018-11-26T01:46:58.781Z,20.33
2018-11-26T01:49:29.619Z,19.37
2018-11-26T01:52:00.263Z,19.77
2018-11-26T01:54:30.065Z,20.20
2018-11-26T01:57:00.663Z,19.97
2018-11-26T01:59:31.739Z,20.10
2018-11-26T02:02:02.576Z,18.83
2018-11-26T02:04:33.412Z,19.33
2018-11-26T02:07:03.938Z,19.63
2018-11-26T02:09:34.466Z,18.30
2018-11-26T02:12:05.610Z,18.87
2018-11-26T02:14:35.957Z,18.30
2018-11-26T02:17:06.375Z,18.27
2018-11-26T02:19:37.197Z,17.80
2018-11-26T02:22:08.348Z,18.20
2018-11-26T02:24:38.729Z,17.93
2018-11-26T02:27:09.100Z,17.07
2018-11-26T02:29:39.934Z,16.83
2018-11-26T02:32:10.464Z,17.60
2018-11-26T02:34:40.991Z,17.73
2018-11-26T02:37:12.139Z,17.23
2018-11-26T02:39:42.971Z,17.50
2018-11-26T02:44:42.608Z,17.97
2018-11-26T02:47:13.020Z,17.40
2018-11-26T02:49:43.852Z,16.07
2018-11-26T02:52:14.600Z,17.03
2018-11-26T02:54:45.033Z,16.40
2018-11-26T02:57:14.957Z,16.43
2018-11-26T02:59:44.860Z,16.03
2018-11-26T03:02:15.089Z,16.13
2018-11-26T03:04:45.500Z,16.07
2018-11-26T03:07:16.024Z,15.53
2018-11-26T03:09:46.861Z,15.93
2018-11-26T03:12:17.160Z,15.57
2018-11-26T03:14:47.036Z,15.93
2018-11-26T03:17:17.932Z,16.10
2018-11-26T03:19:48.057Z,15.83
2018-11-26T03:22:18.891Z,15.43
2018-11-26T03:24:49.735Z,14.57
2018-11-26T03:27:20.880Z,14.67
2018-11-26T03:29:51.712Z,14.83
2018-11-26T03:32:21.936Z,14.93
2018-11-26T03:34:51.233Z,14.33
2018-11-26T03:37:21.760Z,14.77
2018-11-26T03:39:52.603Z,14.70
2018-11-26T03:42:23.442Z,15.07
2018-11-26T03:44:54.271Z,14.43
2018-11-26T03:47:24.817Z,14.40
2018-11-26T03:49:55.327Z,14.67
2018-11-26T03:52:25.856Z,13.97
2018-11-26T03:54:56.183Z,14.50
2018-11-26T03:57:27.028Z,14.57
2018-11-26T03:59:57.536Z,14.37
2018-11-26T04:02:27.971Z,14.50
2018-11-26T04:04:58.736Z,14.40
2018-11-26T04:07:28.620Z,14.07
2018-11-26T04:09:58.619Z,14.13
2018-11-26T04:12:28.352Z,13.73
2018-11-26T04:14:59.192Z,13.80
2018-11-26T04:17:29.726Z,13.90
2018-11-26T04:20:00.253Z,13.63
2018-11-26T04:22:30.776Z,13.57
2018-11-26T04:25:01.112Z,13.70
2018-11-26T04:27:31.836Z,13.40
2018-11-26T04:30:02.979Z,14.03
2018-11-26T04:32:33.304Z,13.23
2018-11-26T04:35:03.858Z,14.17
2018-11-26T04:37:34.007Z,13.23
2018-11-26T04:40:03.998Z,13.47
2018-11-26T04:42:34.395Z,12.97
2018-11-26T04:45:04.831Z,12.97
2018-11-26T04:47:35.464Z,13.43
2018-11-26T04:50:07.524Z,13.60
2018-11-26T04:52:37.603Z,12.67
2018-11-26T04:55:09.520Z,12.70
2018-11-26T04:57:42.561Z,12.93
2018-11-26T05:00:12.130Z,12.77
2018-11-26T05:02:42.317Z,12.53
2018-11-26T05:05:13.589Z,12.73
2018-11-26T05:07:43.797Z,12.57
2018-11-26T05:10:14.390Z,12.97
2018-11-26T05:12:44.623Z,12.83
2018-11-26T05:15:15.100Z,12.73
2018-11-26T05:17:45.799Z,12.83
2018-11-26T05:20:16.392Z,12.53
2018-11-26T05:22:46.615Z,12.67
2018-11-26T05:25:16.533Z,12.87
2018-11-26T05:27:46.683Z,12.10
2018-11-26T05:30:17.007Z,12.07
2018-11-26T05:32:46.904Z,11.90
2018-11-26T05:35:17.053Z,12.10
2018-11-26T05:37:47.885Z,12.10
2018-11-26T05:40:18.410Z,12.33
2018-11-26T05:42:49.253Z,12.50
2018-11-26T05:45:20.084Z,11.57
2018-11-26T05:47:50.796Z,12.30
2018-11-26T05:50:21.447Z,11.80
2018-11-26T05:52:51.060Z,11.67
2018-11-26T05:55:22.203Z,12.00
2018-11-26T05:57:52.734Z,11.47
2018-11-26T06:00:28.788Z,11.23
2018-11-26T06:02:59.500Z,11.87
2018-11-26T06:05:30.160Z,12.13
2018-11-26T06:08:00.177Z,11.07
2018-11-26T06:10:30.584Z,12.23
2018-11-26T06:13:00.828Z,11.63
2018-11-26T06:15:31.353Z,10.93
2018-11-26T06:18:02.190Z,11.57
2018-11-26T06:20:33.156Z,11.10
2018-11-26T06:23:03.253Z,11.13
2018-11-26T06:25:33.289Z,11.23
2018-11-26T06:28:03.392Z,10.70
2018-11-26T06:30:33.907Z,11.00
2018-11-26T06:35:33.828Z,10.53
2018-11-26T06:38:04.274Z,10.80
2018-11-26T06:40:34.495Z,10.80
2018-11-26T06:43:05.082Z,10.93
2018-11-26T06:45:35.556Z,10.30
2018-11-26T06:48:05.968Z,10.23
2018-11-26T06:50:36.299Z,10.43
2018-11-26T06:53:06.889Z,10.20
2018-11-26T06:55:37.555Z,9.50
2018-11-26T06:58:08.511Z,9.90
2018-11-26T07:00:39.381Z,10.90
2018-11-26T07:03:09.873Z,10.40
2018-11-26T07:05:40.399Z,10.50
2018-11-26T07:08:10.926Z,9.80
2018-11-26T07:10:41.770Z,10.03
2018-11-26T07:13:12.092Z,10.00
2018-11-26T07:15:41.981Z,10.00
2018-11-26T07:18:12.224Z,9.47
2018-11-26T07:20:42.370Z,9.27
2018-11-26T07:23:13.182Z,9.93
2018-11-26T07:25:43.100Z,8.93
2018-11-26T07:28:13.935Z,8.97
2018-11-26T07:30:44.256Z,9.30
2018-11-26T07:33:14.168Z,9.20
2018-11-26T07:35:44.802Z,9.07
2018-11-26T07:38:15.119Z,8.83
2018-11-26T07:40:45.556Z,9.63
2018-11-26T07:43:16.237Z,9.03
2018-11-26T07:45:46.382Z,8.77
2018-11-26T07:48:15.915Z,9.17
2018-11-26T07:50:45.936Z,8.67
2018-11-26T07:53:16.427Z,8.93
2018-11-26T07:58:15.758Z,8.57
2018-11-26T08:00:46.108Z,8.70
2018-11-26T08:03:16.580Z,8.60
2018-11-26T08:05:47.159Z,8.60
2018-11-26T08:08:16.425Z,8.23
2018-11-26T08:10:46.693Z,8.85
2018-11-26T08:13:17.215Z,8.13
2018-11-26T08:15:47.125Z,8.40
2018-11-26T08:18:17.795Z,8.57
2018-11-26T08:20:47.876Z,8.27
2018-11-26T08:23:19.023Z,8.07
2018-11-26T08:25:49.960Z,8.80
2018-11-26T08:28:20.080Z,8.13
2018-11-26T08:30:50.918Z,7.93
2018-11-26T08:33:21.112Z,8.30
2018-11-26T08:35:56.048Z,7.77
2018-11-26T08:38:30.502Z,7.87
2018-11-26T08:41:24.685Z,8.07
2018-11-26T08:43:58.579Z,7.93
2018-11-26T08:46:31.885Z,7.63
2018-11-26T08:49:07.629Z,7.97
2018-11-26T08:51:39.080Z,7.60
2018-11-26T08:54:09.958Z,8.10
2018-11-26T08:56:40.456Z,8.17
2018-11-26T08:59:11.283Z,7.90
2018-11-26T09:01:42.683Z,7.47
2018-11-26T09:04:19.139Z,7.60
2018-11-26T09:06:49.559Z,7.50
2018-11-26T09:09:18.624Z,7.77
2018-11-26T09:11:49.452Z,7.17
2018-11-26T09:14:20.295Z,7.17
2018-11-26T09:16:50.520Z,7.50
2018-11-26T09:19:21.043Z,7.67
2018-11-26T09:21:51.879Z,7.50
2018-11-26T09:24:22.716Z,7.70
2018-11-26T09:26:53.244Z,7.33
2018-11-26T09:29:24.084Z,7.33
2018-11-26T09:31:54.729Z,7.40
2018-11-26T09:34:25.275Z,7.87
2018-11-26T09:36:55.675Z,7.40
2018-11-26T09:39:26.512Z,7.47
2018-11-26T09:41:56.797Z,7.53
2018-11-26T09:44:26.952Z,7.13
2018-11-26T09:46:56.355Z,7.07
2018-11-26T09:49:27.400Z,7.27
2018-11-26T09:51:56.768Z,6.97
2018-11-26T09:54:27.220Z,7.43
2018-11-26T09:56:58.369Z,6.93
2018-11-26T09:59:28.712Z,7.60
2018-11-26T10:01:58.608Z,7.27
2018-11-26T10:04:27.811Z,7.00
2018-11-26T10:06:58.337Z,6.80
2018-11-26T10:09:29.236Z,7.00
2018-11-26T10:11:59.700Z,7.53
2018-11-26T10:14:30.667Z,7.07
2018-11-26T10:17:01.376Z,6.50
2018-11-26T10:19:32.824Z,6.77
2018-11-26T10:22:03.664Z,6.90
2018-11-26T10:24:34.188Z,7.00
2018-11-26T10:27:04.720Z,6.70
2018-11-26T10:29:35.472Z,6.77
2018-11-26T10:32:05.564Z,6.20
2018-11-26T10:34:35.533Z,6.80
2018-11-26T10:37:05.472Z,6.50
2018-11-26T10:39:35.660Z,6.23
2018-11-26T10:42:05.936Z,6.60
2018-11-26T10:44:36.289Z,6.60
2018-11-26T10:47:06.677Z,7.10
2018-11-26T10:49:37.652Z,6.90
2018-11-26T10:52:08.475Z,6.53
2018-11-26T10:54:37.976Z,6.50
2018-11-26T10:57:08.616Z,6.57
2018-11-26T10:59:39.773Z,6.90
2018-11-26T11:02:15.815Z,6.50
2018-11-26T11:04:47.693Z,6.73
2018-11-26T11:07:17.179Z,6.67
2018-11-26T11:09:46.445Z,6.07
2018-11-26T11:12:16.404Z,6.33
2018-11-26T11:14:46.311Z,5.90
2018-11-26T11:17:16.952Z,6.27
2018-11-26T11:19:47.067Z,6.47
2018-11-26T11:22:17.432Z,6.60
2018-11-26T11:24:47.608Z,6.20
2018-11-26T11:27:17.732Z,6.50
2018-11-26T11:29:47.971Z,6.60
2018-11-26T11:32:18.792Z,6.50
2018-11-26T11:34:49.295Z,5.80
2018-11-26T11:37:19.857Z,6.23
2018-11-26T11:39:50.200Z,6.20
2018-11-26T11:42:20.914Z,6.07
2018-11-26T11:44:51.437Z,6.03
2018-11-26T11:47:21.968Z,6.70
2018-11-26T11:49:52.498Z,6.37
2018-11-26T11:52:23.030Z,6.23
2018-11-26T11:54:53.320Z,6.20
2018-11-26T11:57:23.630Z,6.23
2018-11-26T11:59:53.692Z,6.00
2018-11-26T12:02:24.216Z,6.00
2018-11-26T12:04:54.431Z,6.30
2018-11-26T12:07:24.983Z,6.30
2018-11-26T12:09:55.810Z,6.20
2018-11-26T12:12:26.645Z,6.57
2018-11-26T12:14:57.483Z,6.40
2018-11-26T12:17:27.693Z,6.13
2018-11-26T17:36:58.187Z,5.07
2018-11-26T17:39:29.317Z,5.43
2018-11-26T17:41:59.537Z,5.30
2018-11-26T17:44:29.970Z,5.13
2018-11-26T17:47:00.897Z,5.10
2018-11-26T17:49:31.737Z,4.87
2018-11-26T17:52:02.066Z,5.03
2018-11-26T17:54:31.866Z,4.77
2018-11-26T17:57:01.917Z,5.00
2018-11-26T17:59:31.395Z,5.00
2018-11-26T18:02:01.920Z,4.90
2018-11-26T18:04:32.762Z,5.13
2018-11-26T18:07:03.593Z,4.80
2018-11-26T18:09:33.917Z,5.30
2018-11-26T18:12:04.961Z,4.83
2018-11-26T18:14:35.498Z,4.80
2018-11-26T18:17:05.676Z,4.67
2018-11-26T18:19:36.213Z,4.67
2018-11-26T18:22:06.509Z,4.97
2018-11-26T18:24:36.660Z,4.70
2018-11-26T18:27:08.956Z,4.70
2018-11-26T18:29:39.689Z,4.80
2018-11-26T18:32:10.117Z,4.97
2018-11-26T18:34:40.957Z,5.27
2018-11-26T18:37:11.485Z,4.70
2018-11-26T18:39:42.092Z,5.00
2018-11-26T18:42:12.644Z,4.70
2018-11-26T18:44:43.382Z,4.67
2018-11-26T18:47:13.910Z,4.87
2018-11-26T18:49:44.430Z,4.83
2018-11-26T18:52:14.657Z,4.90
2018-11-26T18:54:45.810Z,5.40
2018-11-26T18:57:16.647Z,5.27
2018-11-26T18:59:47.474Z,5.30
2018-11-26T19:02:18.007Z,5.00
2018-11-26T19:04:48.534Z,5.20
2018-11-26T19:07:19.083Z,5.23
2018-11-26T19:09:49.916Z,5.13
2018-11-26T19:12:20.462Z,4.90
2018-11-26T19:14:51.494Z,5.13
2018-11-26T19:17:22.425Z,4.90
2018-11-26T19:19:52.945Z,4.87
2018-11-26T19:22:23.791Z,5.10
2018-11-26T19:24:54.718Z,5.00
2018-11-26T19:27:25.757Z,4.90
2018-11-26T19:29:56.592Z,5.00
2018-11-26T19:32:27.122Z,4.97
2018-11-26T19:34:57.774Z,4.73
2018-11-26T19:37:27.872Z,5.10
2018-11-26T19:39:58.461Z,4.80
2018-11-26T19:42:28.682Z,4.90
2018-11-26T19:44:58.843Z,5.13
2018-11-26T19:47:29.387Z,5.00
2018-11-26T19:50:02.318Z,4.83
2018-11-26T19:52:30.593Z,5.23
2018-11-26T19:55:01.697Z,4.90
2018-11-26T19:57:31.489Z,5.10
2018-11-26T20:00:01.819Z,4.60
2018-11-26T20:02:31.942Z,4.97
2018-11-26T20:05:03.038Z,5.23
2018-11-26T20:07:33.342Z,5.73
2018-11-26T20:10:03.668Z,6.03
2018-11-26T20:12:34.062Z,5.87
2018-11-26T20:15:04.808Z,5.73
2018-11-26T20:17:34.801Z,5.77
2018-11-26T20:20:05.641Z,5.63
2018-11-26T20:22:36.477Z,5.60
2018-11-26T20:25:10.383Z,5.50
2018-11-26T20:27:40.801Z,5.50
2018-11-26T20:30:14.254Z,5.30
2018-11-26T20:32:46.903Z,5.17
2018-11-26T20:35:18.664Z,5.20
2018-11-26T20:37:49.173Z,5.50
2018-11-26T20:40:19.793Z,5.50
2018-11-26T20:42:53.305Z,5.40
2018-11-26T20:45:23.525Z,5.60
2018-11-26T20:47:54.792Z,5.80
2018-11-26T20:50:28.414Z,5.37
2018-11-26T20:52:58.817Z,5.60
2018-11-26T20:55:29.702Z,5.63
2018-11-26T20:57:59.889Z,5.30
2018-11-26T21:00:30.988Z,5.47
2018-11-26T21:03:09.493Z,5.60
2018-11-26T21:05:40.494Z,5.30
2018-11-26T21:08:10.885Z,5.43
2018-11-26T21:10:41.716Z,5.57
2018-11-26T21:13:16.957Z,5.73
2018-11-26T21:15:44.322Z,5.60
2018-11-26T21:18:15.041Z,5.60
2018-11-26T21:20:48.140Z,5.47
2018-11-26T21:23:21.911Z,5.30
2018-11-26T21:25:52.269Z,5.53
2018-11-26T21:28:23.108Z,5.13
2018-11-26T21:30:53.638Z,4.87
2018-11-26T21:33:24.472Z,5.30
2018-11-26T21:35:54.555Z,5.10
2018-11-26T21:38:25.230Z,5.30
2018-11-26T21:40:56.058Z,5.00
2018-11-26T21:43:27.213Z,5.07
2018-11-26T21:45:59.582Z,5.20
2018-11-26T21:48:30.244Z,5.40
2018-11-26T21:51:01.258Z,5.03
2018-11-26T21:53:31.596Z,5.50
2018-11-26T21:56:01.693Z,5.30
2018-11-26T22:01:03.308Z,5.33
2018-11-26T22:03:33.586Z,5.40
2018-11-26T22:06:04.741Z,5.73
2018-11-26T22:08:35.388Z,5.40
2018-11-26T22:11:05.868Z,5.60
2018-11-26T22:13:36.322Z,6.00
2018-11-26T22:16:08.310Z,5.70
2018-11-26T22:18:39.225Z,5.87
2018-11-26T22:21:09.750Z,6.00
2018-11-26T22:23:40.585Z,5.90
2018-11-26T22:26:11.349Z,6.23
2018-11-26T22:28:41.960Z,5.83
2018-11-26T22:31:12.633Z,6.10
2018-11-26T22:33:43.942Z,6.10
2018-11-26T22:36:14.778Z,6.20
2018-11-26T22:38:45.417Z,5.90
2018-11-26T22:41:15.695Z,5.90
2018-11-26T22:43:46.272Z,5.70
2018-11-26T22:46:16.681Z,5.80
2018-11-26T22:48:47.516Z,5.90
2018-11-26T22:51:17.829Z,6.13
2018-11-26T22:53:47.649Z,6.27
2018-11-26T22:56:17.095Z,6.40
2018-11-26T22:58:47.277Z,6.80
2018-11-26T23:01:17.497Z,6.57
2018-11-26T23:03:47.526Z,6.47
2018-11-26T23:06:17.736Z,6.73
2018-11-26T23:08:47.862Z,6.70
2018-11-26T23:11:18.701Z,6.90
2018-11-26T23:13:49.721Z,7.15
2018-11-26T23:18:49.673Z,6.80
2018-11-26T23:21:19.681Z,7.13
2018-11-26T23:23:49.633Z,7.57
2018-11-26T23:26:20.025Z,7.27
2018-11-26T23:28:50.860Z,7.50
2018-11-26T23:31:21.085Z,6.60
2018-11-26T23:33:52.477Z,7.57
2018-11-26T23:36:22.845Z,8.07
2018-11-26T23:38:53.117Z,7.60
2018-11-26T23:41:23.101Z,7.80
2018-11-26T23:43:53.734Z,8.10
2018-11-26T23:46:24.569Z,8.30
2018-11-26T23:48:55.029Z,8.50
2018-11-26T23:51:25.947Z,8.73
2018-11-26T23:53:56.158Z,8.60
2018-11-26T23:56:26.993Z,8.60
2018-11-26T23:58:57.522Z,8.70
